Latest Coastal Weather Observations for Low Isles

IDQ60701

Issued at 12:51 pm EST Saturday 10 December 2016 (issued every 10 minutes, with the page automatically refreshed every 10 minutes)

About coastal observations | Map of coastal stations | Coastal observations for QLD | Marine services | Other Formats
Station Details ID: 031037 Name: LOW ISLES LIGHTHOUSE Lat: -16.38 Lon: 145.56 Height: 2.9 m
Data from the previous 72 hours. | See also: Recent months at Low Isles
Date/Time
EST
Temp
°C
Wind Pressure Rain since
9am
mm
Weather Cloud Vis
km
Sea
Height
m
Swell
Dir  Spd
kts
Gust
kts
hPa Trend Height
m
Period
s
Dir
10/12:30pm 33.1 E 11 14 1012.0 - 0.0 - - - - - - -
10/12:00pm 33.3 ESE 10 13 1012.0 - 0.0 - - - - - - -
10/11:30am 33.1 E 10 14 1012.2 - 0.0 - - - - - - -
10/11:00am 32.3 ESE 8 12 1012.2 - 0.0 - - - - - - -
10/10:30am 32.3 ESE 9 15 1012.3 - 0.0 - - - - - - -
10/10:00am 32.0 E 11 14 1012.3 - 0.0 - - - - - - -
10/09:30am 31.1 ESE 11 14 1012.3 - 0.0 - - - - - - -
10/09:00am 30.6 ESE 10 12 1012.1 - 0.0 Haze Cloudy 15 - - - -
10/08:30am 30.4 ESE 10 13 1012.3 - 0.0 - - - - - - -
10/08:00am 29.7 E 10 13 1011.9 - 0.0 - - - - - - -
10/07:30am 29.0 ESE 11 15 1011.9 - 0.0 - - - - - - -
10/07:00am 28.2 ESE 9 13 1011.5 - 0.0 - - - - - - -
10/06:30am 27.8 ESE 11 14 1011.3 - 0.0 - - - - - - -
10/06:00am 27.4 E 10 14 1010.7 - 0.0 - - - - - - -
10/05:30am 27.2 E 11 14 1010.3 - 0.0 - - - - - - -
10/05:00am 27.2 E 12 16 1010.1 - 0.0 - - - - - - -
10/04:30am 27.3 E 11 14 1009.8 - 0.0 - - - - - - -
10/04:00am 27.2 E 13 16 1009.3 - 0.0 - - - - - - -
10/03:30am 27.2 E 10 14 1009.4 - 0.0 - - - - - - -
10/03:00am 27.0 E 9 13 1009.1 - 0.0 - - - - - - -
10/02:30am 27.0 E 10 13 1009.4 - 0.0 - - - - - - -
10/02:00am 27.3 ESE 8 10 1009.7 - 0.0 - - - - - - -
10/01:30am 27.2 E 9 12 1009.7 - 0.0 - - - - - - -
10/01:00am 27.2 ESE 8 11 1009.9 - 0.0 - - - - - - -
10/12:30am 27.1 E 6 8 1010.3 - 0.0 - - - - - - -
10/12:00am 27.0 E 10 11 1010.6 - 0.0 - - - - - - -
 
Date/Time
EST
Temp
°C
Wind Pressure Rain since
9am
mm
Weather Cloud Vis
km
Sea
Height
m
Swell
Dir  Spd
kts
Gust
kts
hPa Trend Height
m
Period
s
Dir
09/11:30pm 27.1 ESE 7 9 1011.0 - 0.0 - - - - - - -
09/11:00pm 26.9 E 6 8 1011.1 - 0.0 - - - - - - -
09/10:30pm 26.8 E 6 8 1011.3 - 0.0 - - - - - - -
09/10:00pm 27.1 ESE 5 7 1011.2 - 0.0 - - - - - - -
09/09:30pm 27.3 ESE 7 9 1011.0 - 0.0 - - - - - - -
09/09:00pm 27.5 ESE 9 10 1010.6 - 0.0 - - - - - - -
09/08:30pm 27.6 ESE 8 11 1010.5 - 0.0 - - - - - - -
09/08:00pm 27.7 ESE 9 11 1010.3 - 0.0 - - - - - - -
09/07:30pm 28.0 ESE 8 11 1010.1 - 0.0 - - - - - - -
09/07:00pm 28.0 E 9 12 1009.7 - 0.0 - - - - - - -
09/06:30pm 28.5 E 8 11 1009.2 - 0.0 - - - - - - -
09/06:00pm 29.3 E 8 9 1008.7 - 0.0 - - - - - - -
09/05:30pm 30.1 ENE 8 10 1008.7 - 0.0 - - - - - - -
09/05:00pm 31.2 ENE 8 10 1008.4 - 0.0 - - - - - - -
09/04:30pm 31.7 ENE 9 11 1008.4 - 0.0 - - - - - - -
09/04:00pm 32.4 ENE 8 11 1008.2 - 0.0 - - - - - - -
09/03:30pm 32.7 ENE 8 11 1008.3 - 0.0 - - - - - - -
09/03:00pm 33.4 ENE 9 10 1008.1 - 0.0 - - - - - - -
09/02:30pm 33.7 E 9 11 1008.3 - 0.0 - - - - - - -
09/02:00pm 33.8 E 9 11 1008.7 - 0.0 - - - - - - -
09/01:30pm 34.5 E 11 14 1008.8 - 0.0 - - - - - - -
09/01:00pm 34.5 E 11 13 1009.3 - 0.0 - - - - - - -
09/12:30pm 34.1 E 9 12 1009.7 - 0.0 - - - - - - -
09/12:00pm 32.5 ESE 5 8 1009.8 - 0.0 - - - - - - -
09/11:30am 32.6 SE 5 7 1010.3 - 0.0 - - - - - - -
09/11:00am 32.6 ESE 5 6 1010.5 - 0.0 - - - - - - -
09/10:30am 32.3 SE 5 7 1010.8 - 0.0 - - - - - - -
09/10:00am 31.8 SSE 3 6 1011.1 - 0.0 - - - - - - -
09/09:30am 31.4 ESE 4 6 1011.2 - 0.0 - - - - - - -
09/09:00am 30.7 ESE 6 9 1010.9 - 0.0 - - - - - - -
09/08:30am 30.4 ESE 4 5 1011.0 - 0.0 - - - - - - -
09/08:00am 29.2 E 6 8 1010.9 - 0.0 - - - - - - -
09/07:30am 28.7 E 7 10 1010.6 - 0.0 - - - - - - -
09/07:00am 27.7 ESE 7 8 1010.5 - 0.0 - - - - - - -
09/06:30am 27.0 ESE 7 9 1010.2 - 0.0 - - - - - - -
09/06:00am 26.4 E 7 9 1009.8 - 0.0 - - - - - - -
09/05:30am 26.2 E 7 11 1009.6 - 0.0 - - - - - - -
09/05:00am 26.2 E 7 8 1009.2 - 0.0 - - - - - - -
09/04:30am 26.6 E 9 12 1008.9 - 0.0 - - - - - - -
09/04:00am 26.8 E 9 11 1008.9 - 0.0 - - - - - - -
09/03:30am 26.6 E 8 11 1008.8 - 0.0 - - - - - - -
09/03:00am 26.6 ESE 8 10 1008.8 - 0.0 - - - - - - -
09/02:30am 26.6 E 8 10 1008.9 - 0.0 - - - - - - -
09/02:00am 26.7 E 9 13 1008.9 - 0.0 - - - - - - -
09/01:30am 26.9 E 9 12 1009.0 - 0.0 - - - - - - -
09/01:00am 26.6 E 8 10 1009.3 - 0.0 - - - - - - -
09/12:30am 26.9 E 9 11 1009.7 - 0.0 - - - - - - -
09/12:00am 27.4 E 10 13 1010.0 - 0.0 - - - - - - -
 
Date/Time
EST
Temp
°C
Wind Pressure Rain since
9am
mm
Weather Cloud Vis
km
Sea
Height
m
Swell
Dir  Spd
kts
Gust
kts
hPa Trend Height
m
Period
s
Dir
08/11:30pm 27.3 E 11 15 1010.3 - 0.0 - - - - - - -
08/11:00pm 27.5 ENE 9 12 1010.5 - 0.0 - - - - - - -
08/10:30pm 27.2 ENE 9 11 1010.6 - 0.0 - - - - - - -
08/10:00pm 27.3 ENE 8 10 1010.6 - 0.0 - - - - - - -
08/09:30pm 27.5 ENE 11 13 1010.2 - 0.0 - - - - - - -
08/09:00pm 27.4 E 7 8 1009.9 - 0.0 - - - - - - -
08/08:30pm 27.5 E 8 10 1009.9 - 0.0 - - - - - - -
08/08:00pm 27.7 ENE 10 13 1009.8 - 0.0 - - - - - - -
08/07:30pm 27.9 ENE 9 11 1009.6 - 0.0 - - - - - - -
08/07:00pm 28.1 ENE 8 11 1009.2 - 0.0 - - - - - - -
08/06:30pm 28.6 E 6 8 1008.9 - 0.0 - - - - - - -
08/06:00pm 29.4 ENE 8 10 1008.6 - 0.0 - - - - - - -
08/05:30pm 30.1 ENE 9 11 1008.4 - 0.0 - - - - - - -
08/05:00pm 30.5 E 9 11 1008.2 - 0.0 - - - - - - -
08/04:30pm 30.6 E 9 13 1008.1 - 0.0 - - - - - - -
08/04:00pm 32.3 ENE 9 12 1008.1 - 0.0 - - - - - - -
08/03:30pm 32.7 E 10 12 1008.2 - 0.0 - - - - - - -
08/03:00pm 33.7 E 10 12 1008.3 - 0.0 - - - - - - -
08/02:30pm 32.9 ENE 8 11 1008.6 - 0.0 - - - - - - -
08/02:00pm 34.6 ENE 9 11 1008.9 - 0.0 - - - - - - -
08/01:30pm 34.3 E 9 11 1009.2 - 0.0 - - - - - - -
08/01:00pm 33.5 E 9 13 1009.5 - 0.0 - - - - - - -
08/12:30pm 34.2 E 10 13 1009.7 - 0.0 - - - - - - -
08/12:00pm 33.1 E 10 13 1010.0 - 0.0 - - - - - - -
08/11:30am 32.9 E 9 13 1010.3 - 0.0 - - - - - - -
08/11:00am 33.7 E 10 13 1010.5 - 0.0 - - - - - - -
08/10:30am 33.2 ENE 8 11 1010.7 - 0.0 - - - - - - -
08/10:00am 32.1 ESE 8 11 1010.9 - 0.0 - - - - - - -
08/09:30am 31.8 E 8 12 1010.9 - 0.0 - - - - - - -
08/09:00am 30.2 E 7 9 1010.8 - 0.0 Distant precip. Partly cloudy 15 - - - -
08/08:30am 30.6 E 7 9 1010.8 - 0.0 - - - - - - -
08/08:00am 27.9 SSE 7 9 1010.7 - 0.0 - - - - - - -
08/07:30am 28.1 ESE 6 8 1010.7 - 0.0 - - - - - - -
08/07:00am 27.9 ESE 7 10 1010.4 - 0.0 - - - - - - -
08/06:30am 27.2 E 7 10 1010.3 - 0.0 - - - - - - -
08/06:00am 26.7 E 8 9 1009.9 - 0.0 - - - - - - -
08/05:30am 26.7 E 9 11 1009.7 - 0.0 - - - - - - -
08/05:00am 26.8 E 9 11 1009.5 - 0.0 - - - - - - -
08/04:30am 26.7 E 7 11 1009.4 - 0.0 - - - - - - -
08/04:00am 26.6 ESE 7 9 1009.4 - 0.0 - - - - - - -
08/03:30am 26.8 E 8 10 1009.4 - 0.0 - - - - - - -
08/03:00am 26.8 E 9 12 1009.3 - 0.0 - - - - - - -
08/02:30am 26.9 ESE 10 12 1009.5 - 0.0 - - - - - - -
08/02:00am 27.0 E 9 11 1009.7 - 0.0 - - - - - - -
08/01:30am 27.0 E 9 12 1009.9 - 0.0 - - - - - - -
08/01:00am 26.9 E 10 12 1010.3 - 0.0 - - - - - - -
08/12:30am 27.0 ESE 10 13 1010.7 - 0.0 - - - - - - -
08/12:00am 27.3 ESE 12 15 1010.8 - 0.0 - - - - - - -
 
Date/Time
EST
Temp
°C
Wind Pressure Rain since
9am
mm
Weather Cloud Vis
km
Sea
Height
m
Swell
Dir  Spd
kts
Gust
kts
hPa Trend Height
m
Period
s
Dir
07/11:30pm 27.4 ESE 13 17 1011.1 - 0.0 - - - - - - -
07/11:00pm 27.4 ESE 13 16 1011.2 - 0.0 - - - - - - -
07/10:30pm 27.4 ESE 13 17 1011.3 - 0.0 - - - - - - -
07/10:00pm 27.3 ESE 13 16 1011.4 - 0.0 - - - - - - -
07/09:30pm 27.5 ESE 14 19 1011.3 - 0.0 - - - - - - -
07/09:00pm 27.6 ESE 14 17 1011.1 - 0.0 - - - - - - -
07/08:30pm 27.7 ESE 14 17 1011.1 - 0.0 - - - - - - -
07/08:00pm 27.7 ESE 13 16 1011.0 - 0.0 - - - - - - -
07/07:30pm 27.7 ESE 13 16 1010.9 - 0.0 - - - - - - -
07/07:00pm 27.8 ESE 13 16 1010.8 - 0.0 - - - - - - -
07/06:30pm 27.9 ESE 12 15 1010.6 - 0.0 - - - - - - -
07/06:00pm 28.1 ESE 14 16 1010.3 - 0.0 - - - - - - -
07/05:30pm 28.7 ESE 13 15 1010.3 - 0.0 - - - - - - -
07/05:00pm 29.5 ESE 13 16 1010.1 - 0.0 - - - - - - -
07/04:30pm 30.2 ESE 11 15 1010.0 - 0.0 - - - - - - -
07/04:00pm 30.3 E 11 15 1009.9 - 0.0 - - - - - - -
07/03:30pm 30.5 ESE 12 15 1010.1 - 0.0 - - - - - - -
07/03:00pm 30.8 ESE 12 15 1010.2 - 0.0 - - - - - - -
07/02:30pm 30.9 ESE 11 14 1010.5 - 0.0 - - - - - - -
07/02:00pm 31.4 SE 12 15 1010.6 - 0.0 - - - - - - -
07/01:30pm 31.8 SE 11 14 1010.8 - 0.0 - - - - - - -
07/01:00pm 31.7 SE 11 14 1011.1 - 0.0 - - - - - - -

Other Formats:

Comma delimited format used in spreadsheet applications
http://www.bom.gov.au/fwo/IDQ60701/IDQ60701.94285.axf

JavaScript Object Notation format (JSON) in row-major order
http://www.bom.gov.au/fwo/IDQ60701/IDQ60701.94285.json